Avon, Iowa
Current Conditions -  °F | °C
As of 8:54 PM on Tuesday 25 Nov 2014 (Local Time) from KDSM Reporting Station
Broken Clouds Broken Clouds  
Wind Chill: -7°   Ceiling: 30000
Heat Index: -2°   Visibility: 10mi
Dew Point: -11°   Wind: 10mph
Humidity: 51%   Direction: 150°SSE
Pressure: 30.03"   Gusts: NA
Location:  41.4707°N, 93.4797°W
Report Text: KDSM 260254Z 15009KT 10SM FEW180 BKN300 M02/M11 A3003 RMK AO2 SLP180 T10171106 58008
Loading
Personal Weather Stations






























Interactive Weather Map New forecast layout! Learn more

10-Day Weather Forecast

Advertisements
Track Severe Weather on mobile